Aviation Digital Data Service (ADDS)

Output produced by METARs form (1040 UTC 11 February 2016)
found at http://aviationweather.gov/adds/metars/
 
KILG 110520Z 1106/1206 28010G20KT P6SM SCT045 BKN080 
     FM111400 29018G30KT P6SM BKN050 
     FM112300 29012G20KT P6SM SCT050